sensor_id;sensor_type;location;lat;lon;timestamp;pressure;altitude;pressure_sealevel;temperature;humidity
82746;BME280;72484;50.004;14.356;2023-09-19T00:00:00;97389.84;;;20.21;61.74
82746;BME280;72484;50.004;14.356;2023-09-19T00:02:55;97387.01;;;20.21;61.51
82746;BME280;72484;50.004;14.356;2023-09-19T00:05:46;97383.08;;;20.17;61.48
82746;BME280;72484;50.004;14.356;2023-09-19T00:08:35;97384.29;;;20.10;61.17
82746;BME280;72484;50.004;14.356;2023-09-19T00:11:24;97388.34;;;20.04;61.06
82746;BME280;72484;50.004;14.356;2023-09-19T00:14:14;97392.88;;;19.98;60.93
82746;BME280;72484;50.004;14.356;2023-09-19T00:17:03;97400.45;;;19.92;61.20
82746;BME280;72484;50.004;14.356;2023-09-19T00:19:55;97403.06;;;19.89;61.51
82746;BME280;72484;50.004;14.356;2023-09-19T00:22:44;97400.92;;;19.88;61.49
82746;BME280;72484;50.004;14.356;2023-09-19T00:25:33;97408.70;;;19.83;61.67
82746;BME280;72484;50.004;14.356;2023-09-19T00:28:22;97409.36;;;19.83;61.61
82746;BME280;72484;50.004;14.356;2023-09-19T00:31:10;97407.06;;;19.84;61.62
82746;BME280;72484;50.004;14.356;2023-09-19T00:34:00;97411.59;;;19.81;61.42
82746;BME280;72484;50.004;14.356;2023-09-19T00:36:57;97418.34;;;19.76;61.72
82746;BME280;72484;50.004;14.356;2023-09-19T00:39:46;97416.31;;;19.72;61.95
82746;BME280;72484;50.004;14.356;2023-09-19T00:42:35;97417.17;;;19.70;61.81
82746;BME280;72484;50.004;14.356;2023-09-19T00:45:25;97423.46;;;19.64;61.88
82746;BME280;72484;50.004;14.356;2023-09-19T00:48:14;97423.10;;;19.60;62.09
82746;BME280;72484;50.004;14.356;2023-09-19T00:51:05;97419.64;;;19.60;62.03
82746;BME280;72484;50.004;14.356;2023-09-19T00:53:54;97418.86;;;19.64;61.96
82746;BME280;72484;50.004;14.356;2023-09-19T00:56:42;97418.98;;;19.68;61.90
82746;BME280;72484;50.004;14.356;2023-09-19T00:59:32;97416.48;;;19.61;61.93
82746;BME280;72484;50.004;14.356;2023-09-19T01:02:20;97410.87;;;19.57;62.14
82746;BME280;72484;50.004;14.356;2023-09-19T01:05:10;97408.52;;;19.55;61.95
82746;BME280;72484;50.004;14.356;2023-09-19T01:07:59;97408.59;;;19.49;61.99
82746;BME280;72484;50.004;14.356;2023-09-19T01:10:55;97412.22;;;19.47;62.22
82746;BME280;72484;50.004;14.356;2023-09-19T01:13:51;97415.11;;;19.45;62.16
82746;BME280;72484;50.004;14.356;2023-09-19T01:16:50;97417.64;;;19.39;62.33
82746;BME280;72484;50.004;14.356;2023-09-19T01:23:11;97422.28;;;19.27;62.81
82746;BME280;72484;50.004;14.356;2023-09-19T01:26:18;97422.65;;;19.25;62.70
82746;BME280;72484;50.004;14.356;2023-09-19T01:29:26;97422.36;;;19.21;62.81
82746;BME280;72484;50.004;14.356;2023-09-19T01:32:23;97424.95;;;19.18;62.89
82746;BME280;72484;50.004;14.356;2023-09-19T01:35:12;97421.41;;;19.14;62.99
82746;BME280;72484;50.004;14.356;2023-09-19T01:38:01;97423.02;;;19.13;63.13
82746;BME280;72484;50.004;14.356;2023-09-19T01:41:03;97422.48;;;19.11;63.15
82746;BME280;72484;50.004;14.356;2023-09-19T01:43:56;97424.02;;;19.10;63.33
82746;BME280;72484;50.004;14.356;2023-09-19T01:46:46;97429.28;;;19.09;63.29
82746;BME280;72484;50.004;14.356;2023-09-19T01:49:44;97430.91;;;19.08;63.30
82746;BME280;72484;50.004;14.356;2023-09-19T01:52:42;97432.48;;;19.09;63.45
82746;BME280;72484;50.004;14.356;2023-09-19T01:55:47;97432.19;;;19.07;63.60
82746;BME280;72484;50.004;14.356;2023-09-19T01:58:41;97434.60;;;19.07;63.59
82746;BME280;72484;50.004;14.356;2023-09-19T02:01:31;97427.95;;;19.13;63.56
82746;BME280;72484;50.004;14.356;2023-09-19T02:04:20;97427.88;;;19.18;63.34
82746;BME280;72484;50.004;14.356;2023-09-19T02:07:09;97432.41;;;19.18;63.49
82746;BME280;72484;50.004;14.356;2023-09-19T02:09:58;97430.16;;;19.20;63.53
82746;BME280;72484;50.004;14.356;2023-09-19T02:12:47;97425.30;;;19.26;63.24
82746;BME280;72484;50.004;14.356;2023-09-19T02:15:35;97430.22;;;19.24;63.27
82746;BME280;72484;50.004;14.356;2023-09-19T02:18:25;97431.69;;;19.22;63.18
82746;BME280;72484;50.004;14.356;2023-09-19T02:21:15;97427.11;;;19.22;63.32
82746;BME280;72484;50.004;14.356;2023-09-19T02:24:05;97425.84;;;19.25;63.33
82746;BME280;72484;50.004;14.356;2023-09-19T02:26:55;97421.71;;;19.23;63.39
82746;BME280;72484;50.004;14.356;2023-09-19T02:29:44;97417.94;;;19.22;63.37
82746;BME280;72484;50.004;14.356;2023-09-19T02:32:32;97413.89;;;19.24;63.35
82746;BME280;72484;50.004;14.356;2023-09-19T02:35:23;97418.02;;;19.25;63.05
82746;BME280;72484;50.004;14.356;2023-09-19T02:38:13;97412.74;;;19.24;63.18
82746;BME280;72484;50.004;14.356;2023-09-19T02:41:05;97408.93;;;19.20;63.21
82746;BME280;72484;50.004;14.356;2023-09-19T02:43:54;97419.50;;;19.14;63.39
82746;BME280;72484;50.004;14.356;2023-09-19T02:46:42;97419.20;;;19.12;63.61
82746;BME280;72484;50.004;14.356;2023-09-19T02:49:31;97421.17;;;19.13;63.42
82746;BME280;72484;50.004;14.356;2023-09-19T02:52:19;97422.95;;;19.16;63.30
82746;BME280;72484;50.004;14.356;2023-09-19T02:55:09;97420.20;;;19.13;63.20
82746;BME280;72484;50.004;14.356;2023-09-19T02:57:57;97417.17;;;19.06;63.42
82746;BME280;72484;50.004;14.356;2023-09-19T03:00:46;97415.18;;;19.02;63.76
82746;BME280;72484;50.004;14.356;2023-09-19T03:03:37;97409.79;;;18.99;63.77
82746;BME280;72484;50.004;14.356;2023-09-19T03:06:26;97413.31;;;18.98;63.83
82746;BME280;72484;50.004;14.356;2023-09-19T03:09:14;97415.53;;;19.00;63.89
82746;BME280;72484;50.004;14.356;2023-09-19T03:12:03;97409.55;;;19.02;63.92
82746;BME280;72484;50.004;14.356;2023-09-19T03:14:52;97407.48;;;18.98;63.87
82746;BME280;72484;50.004;14.356;2023-09-19T03:17:44;97406.16;;;19.00;64.00
82746;BME280;72484;50.004;14.356;2023-09-19T03:20:34;97409.36;;;19.02;63.88
82746;BME280;72484;50.004;14.356;2023-09-19T03:23:23;97416.38;;;19.01;64.02
82746;BME280;72484;50.004;14.356;2023-09-19T03:26:13;97413.40;;;19.01;64.23
82746;BME280;72484;50.004;14.356;2023-09-19T03:29:06;97411.30;;;19.06;64.05
82746;BME280;72484;50.004;14.356;2023-09-19T03:31:55;97413.81;;;19.06;64.01
82746;BME280;72484;50.004;14.356;2023-09-19T03:34:43;97410.49;;;19.07;64.06
82746;BME280;72484;50.004;14.356;2023-09-19T03:37:32;97407.52;;;19.12;64.22
82746;BME280;72484;50.004;14.356;2023-09-19T03:40:23;97405.06;;;19.15;63.93
82746;BME280;72484;50.004;14.356;2023-09-19T03:43:13;97403.41;;;19.12;63.93
82746;BME280;72484;50.004;14.356;2023-09-19T03:46:04;97404.42;;;19.09;63.92
82746;BME280;72484;50.004;14.356;2023-09-19T03:48:54;97401.66;;;19.06;64.09
82746;BME280;72484;50.004;14.356;2023-09-19T03:51:43;97403.45;;;18.99;64.05
82746;BME280;72484;50.004;14.356;2023-09-19T03:54:31;97404.09;;;18.95;64.22
82746;BME280;72484;50.004;14.356;2023-09-19T03:57:19;97400.04;;;18.91;64.34
82746;BME280;72484;50.004;14.356;2023-09-19T04:00:11;97400.63;;;18.88;64.58
82746;BME280;72484;50.004;14.356;2023-09-19T04:03:02;97395.25;;;18.85;64.78
82746;BME280;72484;50.004;14.356;2023-09-19T04:05:53;97397.50;;;18.80;64.70
82746;BME280;72484;50.004;14.356;2023-09-19T04:08:41;97403.44;;;18.73;65.10
82746;BME280;72484;50.004;14.356;2023-09-19T04:11:31;97401.19;;;18.68;65.37
82746;BME280;72484;50.004;14.356;2023-09-19T04:14:20;97407.98;;;18.61;65.55
82746;BME280;72484;50.004;14.356;2023-09-19T04:17:09;97412.39;;;18.56;65.42
82746;BME280;72484;50.004;14.356;2023-09-19T04:19:57;97421.43;;;18.49;65.62
82746;BME280;72484;50.004;14.356;2023-09-19T04:22:46;97426.11;;;18.45;65.92
82746;BME280;72484;50.004;14.356;2023-09-19T04:25:35;97434.60;;;18.44;66.27
82746;BME280;72484;50.004;14.356;2023-09-19T04:28:24;97439.86;;;18.40;66.40
82746;BME280;72484;50.004;14.356;2023-09-19T04:31:16;97441.75;;;18.39;66.16
82746;BME280;72484;50.004;14.356;2023-09-19T04:34:06;97448.59;;;18.42;66.11
82746;BME280;72484;50.004;14.356;2023-09-19T04:36:55;97451.92;;;18.43;66.31
82746;BME280;72484;50.004;14.356;2023-09-19T04:39:45;97455.69;;;18.44;66.19
82746;BME280;72484;50.004;14.356;2023-09-19T04:42:33;97455.50;;;18.42;66.17
82746;BME280;72484;50.004;14.356;2023-09-19T04:45:22;97460.42;;;18.44;66.17
82746;BME280;72484;50.004;14.356;2023-09-19T04:48:13;97463.86;;;18.43;66.10
82746;BME280;72484;50.004;14.356;2023-09-19T04:51:04;97468.38;;;18.45;66.03
82746;BME280;72484;50.004;14.356;2023-09-19T04:53:52;97474.25;;;18.46;66.26
82746;BME280;72484;50.004;14.356;2023-09-19T04:56:41;97480.67;;;18.47;66.33
82746;BME280;72484;50.004;14.356;2023-09-19T04:59:29;97485.31;;;18.49;65.98
82746;BME280;72484;50.004;14.356;2023-09-19T05:02:18;97495.05;;;18.50;66.06
82746;BME280;72484;50.004;14.356;2023-09-19T05:05:08;97503.19;;;18.49;65.93
82746;BME280;72484;50.004;14.356;2023-09-19T05:07:58;97507.86;;;18.52;65.82
82746;BME280;72484;50.004;14.356;2023-09-19T05:10:46;97507.78;;;18.57;65.54
82746;BME280;72484;50.004;14.356;2023-09-19T05:13:34;97508.50;;;18.57;65.55
82746;BME280;72484;50.004;14.356;2023-09-19T05:16:23;97514.02;;;18.57;65.50
82746;BME280;72484;50.004;14.356;2023-09-19T05:19:13;97520.26;;;18.58;65.62
82746;BME280;72484;50.004;14.356;2023-09-19T05:22:01;97526.27;;;18.63;65.46
82746;BME280;72484;50.004;14.356;2023-09-19T05:24:51;97525.18;;;18.70;65.23
82746;BME280;72484;50.004;14.356;2023-09-19T05:27:40;97529.73;;;18.74;65.12
82746;BME280;72484;50.004;14.356;2023-09-19T05:30:29;97530.35;;;18.75;64.97
82746;BME280;72484;50.004;14.356;2023-09-19T05:33:18;97525.73;;;18.73;64.85
82746;BME280;72484;50.004;14.356;2023-09-19T05:36:07;97533.35;;;18.71;65.01
82746;BME280;72484;50.004;14.356;2023-09-19T05:38:57;97540.78;;;18.70;65.35
82746;BME280;72484;50.004;14.356;2023-09-19T05:41:46;97539.49;;;18.68;65.47
82746;BME280;72484;50.004;14.356;2023-09-19T05:44:35;97532.98;;;18.65;65.65
82746;BME280;72484;50.004;14.356;2023-09-19T05:47:24;97533.05;;;18.63;65.47
82746;BME280;72484;50.004;14.356;2023-09-19T05:50:13;97529.52;;;18.59;65.62
82746;BME280;72484;50.004;14.356;2023-09-19T05:53:02;97531.57;;;18.58;65.67
82746;BME280;72484;50.004;14.356;2023-09-19T05:55:51;97528.77;;;18.61;65.80
82746;BME280;72484;50.004;14.356;2023-09-19T05:58:42;97534.36;;;18.59;65.75
82746;BME280;72484;50.004;14.356;2023-09-19T06:01:31;97537.86;;;18.59;65.83
82746;BME280;72484;50.004;14.356;2023-09-19T06:04:21;97542.27;;;18.60;65.78
82746;BME280;72484;50.004;14.356;2023-09-19T06:07:10;97549.18;;;18.63;65.86
82746;BME280;72484;50.004;14.356;2023-09-19T06:09:59;97551.34;;;18.63;65.96
82746;BME280;72484;50.004;14.356;2023-09-19T06:12:48;97555.41;;;18.67;65.78
82746;BME280;72484;50.004;14.356;2023-09-19T06:15:37;97557.07;;;18.71;65.85
82746;BME280;72484;50.004;14.356;2023-09-19T06:18:26;97566.33;;;18.72;65.46
82746;BME280;72484;50.004;14.356;2023-09-19T06:21:19;97578.21;;;18.73;65.67
82746;BME280;72484;50.004;14.356;2023-09-19T06:24:08;97580.26;;;18.75;65.78
82746;BME280;72484;50.004;14.356;2023-09-19T06:26:57;97580.59;;;18.74;65.64
82746;BME280;72484;50.004;14.356;2023-09-19T06:29:48;97583.19;;;18.76;65.52
82746;BME280;72484;50.004;14.356;2023-09-19T06:32:37;97592.96;;;18.78;65.73
82746;BME280;72484;50.004;14.356;2023-09-19T06:35:26;97593.06;;;18.78;65.61
82746;BME280;72484;50.004;14.356;2023-09-19T06:38:15;97597.73;;;18.78;65.58
82746;BME280;72484;50.004;14.356;2023-09-19T06:41:06;97602.11;;;18.79;65.63
82746;BME280;72484;50.004;14.356;2023-09-19T06:43:55;97611.45;;;18.80;65.57
82746;BME280;72484;50.004;14.356;2023-09-19T06:46:43;97616.17;;;18.85;65.60
82746;BME280;72484;50.004;14.356;2023-09-19T06:49:33;97614.93;;;18.87;65.44
82746;BME280;72484;50.004;14.356;2023-09-19T06:52:22;97616.64;;;18.89;65.55
82746;BME280;72484;50.004;14.356;2023-09-19T06:55:10;97616.70;;;18.91;65.46
82746;BME280;72484;50.004;14.356;2023-09-19T06:58:00;97618.77;;;18.96;65.53
82746;BME280;72484;50.004;14.356;2023-09-19T07:00:48;97618.82;;;19.03;65.18
82746;BME280;72484;50.004;14.356;2023-09-19T07:03:37;97619.29;;;19.07;65.31
82746;BME280;72484;50.004;14.356;2023-09-19T07:06:27;97629.83;;;19.10;65.12
82746;BME280;72484;50.004;14.356;2023-09-19T07:09:15;97631.42;;;19.15;64.98
82746;BME280;72484;50.004;14.356;2023-09-19T07:12:05;97636.14;;;19.14;64.80
82746;BME280;72484;50.004;14.356;2023-09-19T07:14:53;97636.44;;;19.13;64.88
82746;BME280;72484;50.004;14.356;2023-09-19T07:17:42;97638.46;;;19.20;64.81
82746;BME280;72484;50.004;14.356;2023-09-19T07:20:33;97636.56;;;19.26;64.55
82746;BME280;72484;50.004;14.356;2023-09-19T07:23:22;97639.01;;;19.34;64.56
82746;BME280;72484;50.004;14.356;2023-09-19T07:26:10;97635.92;;;19.43;64.46
82746;BME280;72484;50.004;14.356;2023-09-19T07:28:59;97639.75;;;19.53;63.90
82746;BME280;72484;50.004;14.356;2023-09-19T07:31:49;97644.84;;;19.57;63.54
82746;BME280;72484;50.004;14.356;2023-09-19T07:34:37;97649.96;;;19.58;63.50
82746;BME280;72484;50.004;14.356;2023-09-19T07:37:28;97655.23;;;19.63;63.52
82746;BME280;72484;50.004;14.356;2023-09-19T07:40:19;97656.99;;;19.67;63.52
82746;BME280;72484;50.004;14.356;2023-09-19T07:43:08;97666.20;;;19.69;63.44
82746;BME280;72484;50.004;14.356;2023-09-19T07:45:57;97669.03;;;19.73;63.17
82746;BME280;72484;50.004;14.356;2023-09-19T07:48:47;97669.14;;;19.71;63.03
82746;BME280;72484;50.004;14.356;2023-09-19T07:51:36;97665.85;;;19.73;63.25
82746;BME280;72484;50.004;14.356;2023-09-19T07:54:25;97670.94;;;19.79;63.00
82746;BME280;72484;50.004;14.356;2023-09-19T07:57:17;97671.32;;;19.84;63.03
82746;BME280;72484;50.004;14.356;2023-09-19T08:00:08;97670.56;;;19.91;62.79
82746;BME280;72484;50.004;14.356;2023-09-19T08:02:58;97673.80;;;19.96;62.29
82746;BME280;72484;50.004;14.356;2023-09-19T08:05:47;97675.88;;;19.95;61.75
82746;BME280;72484;50.004;14.356;2023-09-19T08:08:36;97675.86;;;19.92;61.89
82746;BME280;72484;50.004;14.356;2023-09-19T08:11:25;97674.23;;;19.97;62.09
82746;BME280;72484;50.004;14.356;2023-09-19T08:14:13;97677.50;;;20.00;61.89
82746;BME280;72484;50.004;14.356;2023-09-19T08:17:02;97688.42;;;20.00;61.63
82746;BME280;72484;50.004;14.356;2023-09-19T08:19:51;97690.89;;;20.02;61.52
82746;BME280;72484;50.004;14.356;2023-09-19T08:22:40;97696.55;;;20.02;61.49
82746;BME280;72484;50.004;14.356;2023-09-19T08:25:29;97696.09;;;20.02;61.85
82746;BME280;72484;50.004;14.356;2023-09-19T08:28:18;97695.23;;;20.02;61.42
82746;BME280;72484;50.004;14.356;2023-09-19T08:31:11;97694.09;;;20.02;61.04
82746;BME280;72484;50.004;14.356;2023-09-19T08:33:59;97696.91;;;19.99;61.03
82746;BME280;72484;50.004;14.356;2023-09-19T08:36:48;97701.08;;;19.95;61.42
82746;BME280;72484;50.004;14.356;2023-09-19T08:39:36;97702.40;;;19.96;61.35
82746;BME280;72484;50.004;14.356;2023-09-19T08:42:25;97702.51;;;20.03;61.02
82746;BME280;72484;50.004;14.356;2023-09-19T08:45:14;97702.40;;;20.12;60.92
82746;BME280;72484;50.004;14.356;2023-09-19T08:48:11;97701.83;;;20.20;60.90
82746;BME280;72484;50.004;14.356;2023-09-19T08:51:06;97705.40;;;20.30;60.68
82746;BME280;72484;50.004;14.356;2023-09-19T08:54:02;97705.20;;;20.44;60.50
82746;BME280;72484;50.004;14.356;2023-09-19T08:56:54;97707.73;;;20.62;60.06
82746;BME280;72484;50.004;14.356;2023-09-19T08:59:45;97706.10;;;20.74;59.55
82746;BME280;72484;50.004;14.356;2023-09-19T09:02:38;97704.17;;;20.83;59.58
82746;BME280;72484;50.004;14.356;2023-09-19T09:05:29;97702.04;;;20.92;58.81
82746;BME280;72484;50.004;14.356;2023-09-19T09:08:19;97705.58;;;20.99;58.69
82746;BME280;72484;50.004;14.356;2023-09-19T09:11:08;97708.25;;;21.10;58.66
82746;BME280;72484;50.004;14.356;2023-09-19T09:13:57;97710.02;;;21.18;57.80
82746;BME280;72484;50.004;14.356;2023-09-19T09:16:46;97713.36;;;21.19;56.79
82746;BME280;72484;50.004;14.356;2023-09-19T09:19:35;97713.55;;;21.16;57.12
82746;BME280;72484;50.004;14.356;2023-09-19T09:22:24;97712.29;;;21.15;56.70
82746;BME280;72484;50.004;14.356;2023-09-19T09:25:13;97714.35;;;21.11;56.87
82746;BME280;72484;50.004;14.356;2023-09-19T09:28:02;97715.23;;;21.06;56.81
82746;BME280;72484;50.004;14.356;2023-09-19T09:30:51;97716.41;;;21.01;56.86
82746;BME280;72484;50.004;14.356;2023-09-19T09:33:40;97723.73;;;20.96;56.73
82746;BME280;72484;50.004;14.356;2023-09-19T09:36:39;97728.80;;;20.95;56.83
82746;BME280;72484;50.004;14.356;2023-09-19T09:39:33;97725.61;;;21.01;56.78
82746;BME280;72484;50.004;14.356;2023-09-19T09:42:34;97721.19;;;21.09;56.46
82746;BME280;72484;50.004;14.356;2023-09-19T09:45:26;97717.34;;;21.16;56.38
82746;BME280;72484;50.004;14.356;2023-09-19T09:48:27;97706.58;;;21.23;56.71
82746;BME280;72484;50.004;14.356;2023-09-19T09:51:30;97699.31;;;21.30;56.27
82746;BME280;72484;50.004;14.356;2023-09-19T09:54:20;97697.21;;;21.33;56.34
82746;BME280;72484;50.004;14.356;2023-09-19T09:57:10;97699.80;;;21.39;56.05
82746;BME280;72484;50.004;14.356;2023-09-19T10:00:05;97703.30;;;21.47;55.53
82746;BME280;72484;50.004;14.356;2023-09-19T10:03:20;97704.31;;;21.53;55.28
82746;BME280;72484;50.004;14.356;2023-09-19T10:06:11;97702.61;;;21.62;54.92
82746;BME280;72484;50.004;14.356;2023-09-19T10:09:15;97709.55;;;21.69;55.00
82746;BME280;72484;50.004;14.356;2023-09-19T10:12:08;97714.73;;;21.77;54.78
82746;BME280;72484;50.004;14.356;2023-09-19T10:15:01;97714.55;;;21.83;53.63
82746;BME280;72484;50.004;14.356;2023-09-19T10:17:51;97718.76;;;21.83;52.87
82746;BME280;72484;50.004;14.356;2023-09-19T10:20:43;97718.73;;;21.82;52.86
82746;BME280;72484;50.004;14.356;2023-09-19T10:23:33;97715.95;;;21.91;53.00
82746;BME280;72484;50.004;14.356;2023-09-19T10:26:24;97722.61;;;22.02;52.61
82746;BME280;72484;50.004;14.356;2023-09-19T10:29:14;97726.12;;;22.03;52.25
82746;BME280;72484;50.004;14.356;2023-09-19T10:32:05;97729.48;;;21.98;51.78
82746;BME280;72484;50.004;14.356;2023-09-19T10:34:57;97735.36;;;21.93;51.93
82746;BME280;72484;50.004;14.356;2023-09-19T10:37:49;97734.60;;;21.91;52.30
82746;BME280;72484;50.004;14.356;2023-09-19T10:40:39;97733.28;;;21.86;52.39
82746;BME280;72484;50.004;14.356;2023-09-19T10:43:33;97731.52;;;21.80;52.89
82746;BME280;72484;50.004;14.356;2023-09-19T10:46:22;97726.06;;;21.80;52.76
82746;BME280;72484;50.004;14.356;2023-09-19T10:49:12;97727.29;;;21.83;52.65
82746;BME280;72484;50.004;14.356;2023-09-19T10:52:02;97722.19;;;21.81;51.95
82746;BME280;72484;50.004;14.356;2023-09-19T10:54:56;97722.96;;;21.79;51.75
82746;BME280;72484;50.004;14.356;2023-09-19T10:57:49;97723.85;;;21.76;51.90
82746;BME280;72484;50.004;14.356;2023-09-19T11:00:52;97721.14;;;21.75;53.24
82746;BME280;72484;50.004;14.356;2023-09-19T11:03:41;97720.48;;;21.78;53.20
82746;BME280;72484;50.004;14.356;2023-09-19T11:06:31;97721.73;;;21.81;52.14
82746;BME280;72484;50.004;14.356;2023-09-19T11:09:21;97715.65;;;21.84;52.11
82746;BME280;72484;50.004;14.356;2023-09-19T11:12:10;97713.80;;;21.89;51.36
82746;BME280;72484;50.004;14.356;2023-09-19T11:14:58;97714.34;;;22.01;51.17
82746;BME280;72484;50.004;14.356;2023-09-19T11:17:46;97709.70;;;22.17;49.64
82746;BME280;72484;50.004;14.356;2023-09-19T11:20:35;97703.45;;;22.39;49.29
82746;BME280;72484;50.004;14.356;2023-09-19T11:23:28;97711.60;;;22.54;48.14
82746;BME280;72484;50.004;14.356;2023-09-19T11:26:41;97709.27;;;22.55;46.20
82746;BME280;72484;50.004;14.356;2023-09-19T11:29:34;97707.69;;;22.52;45.49
82746;BME280;72484;50.004;14.356;2023-09-19T11:36:03;97704.07;;;22.72;44.10
82746;BME280;72484;50.004;14.356;2023-09-19T11:39:02;97703.45;;;22.83;45.03
82746;BME280;72484;50.004;14.356;2023-09-19T11:41:56;97711.26;;;22.94;44.16
82746;BME280;72484;50.004;14.356;2023-09-19T11:44:44;97707.17;;;22.94;43.25
82746;BME280;72484;50.004;14.356;2023-09-19T11:47:35;97698.48;;;22.97;43.74
82746;BME280;72484;50.004;14.356;2023-09-19T11:50:25;97704.41;;;23.02;43.48
82746;BME280;72484;50.004;14.356;2023-09-19T11:53:15;97701.61;;;23.06;43.31
82746;BME280;72484;50.004;14.356;2023-09-19T11:56:07;97700.48;;;23.08;43.76
82746;BME280;72484;50.004;14.356;2023-09-19T11:58:57;97701.89;;;23.16;42.93
82746;BME280;72484;50.004;14.356;2023-09-19T12:01:53;97702.81;;;23.20;42.88
82746;BME280;72484;50.004;14.356;2023-09-19T12:04:45;97707.01;;;23.24;42.60
82746;BME280;72484;50.004;14.356;2023-09-19T12:07:45;97712.34;;;23.20;42.28
82746;BME280;72484;50.004;14.356;2023-09-19T12:10:35;97708.21;;;23.08;42.85
82746;BME280;72484;50.004;14.356;2023-09-19T12:13:31;97710.71;;;23.00;43.84
82746;BME280;72484;50.004;14.356;2023-09-19T12:16:22;97711.69;;;22.99;43.50
82746;BME280;72484;50.004;14.356;2023-09-19T12:19:21;97709.77;;;22.96;42.83
82746;BME280;72484;50.004;14.356;2023-09-19T12:22:10;97711.61;;;22.83;42.86
82746;BME280;72484;50.004;14.356;2023-09-19T12:25:07;97709.06;;;22.74;42.64
82746;BME280;72484;50.004;14.356;2023-09-19T12:27:59;97709.02;;;22.69;43.01
82746;BME280;72484;50.004;14.356;2023-09-19T12:30:50;97705.23;;;22.67;43.37
82746;BME280;72484;50.004;14.356;2023-09-19T12:33:42;97704.95;;;22.69;43.44
82746;BME280;72484;50.004;14.356;2023-09-19T12:36:33;97705.02;;;22.67;43.68
82746;BME280;72484;50.004;14.356;2023-09-19T12:39:26;97702.89;;;22.63;43.43
82746;BME280;72484;50.004;14.356;2023-09-19T12:42:17;97697.13;;;22.59;43.56
82746;BME280;72484;50.004;14.356;2023-09-19T12:45:09;97693.96;;;22.59;43.36
82746;BME280;72484;50.004;14.356;2023-09-19T12:48:18;97696.52;;;22.57;43.28
82746;BME280;72484;50.004;14.356;2023-09-19T12:51:10;97695.20;;;22.54;43.35
82746;BME280;72484;50.004;14.356;2023-09-19T12:54:00;97690.17;;;22.55;42.97
82746;BME280;72484;50.004;14.356;2023-09-19T12:56:49;97689.82;;;22.59;43.80
82746;BME280;72484;50.004;14.356;2023-09-19T12:59:38;97689.46;;;22.63;43.16
82746;BME280;72484;50.004;14.356;2023-09-19T13:02:27;97690.03;;;22.66;42.13
82746;BME280;72484;50.004;14.356;2023-09-19T13:05:16;97685.71;;;22.75;42.06
82746;BME280;72484;50.004;14.356;2023-09-19T13:08:19;97685.99;;;22.80;40.49
82746;BME280;72484;50.004;14.356;2023-09-19T13:11:11;97686.05;;;22.87;39.91
82746;BME280;72484;50.004;14.356;2023-09-19T13:14:16;97684.98;;;22.94;39.51
82746;BME280;72484;50.004;14.356;2023-09-19T13:17:07;97683.17;;;23.01;39.76
82746;BME280;72484;50.004;14.356;2023-09-19T13:20:03;97680.13;;;23.11;40.09
82746;BME280;72484;50.004;14.356;2023-09-19T13:22:54;97679.14;;;23.15;40.73
82746;BME280;72484;50.004;14.356;2023-09-19T13:25:47;97677.33;;;23.20;40.29
82746;BME280;72484;50.004;14.356;2023-09-19T13:28:40;97679.04;;;23.25;38.45
82746;BME280;72484;50.004;14.356;2023-09-19T13:31:29;97679.11;;;23.26;38.00
82746;BME280;72484;50.004;14.356;2023-09-19T13:34:18;97680.16;;;23.28;38.02
82746;BME280;72484;50.004;14.356;2023-09-19T13:37:06;97684.27;;;23.25;37.81
82746;BME280;72484;50.004;14.356;2023-09-19T13:39:55;97685.29;;;23.23;37.78
82746;BME280;72484;50.004;14.356;2023-09-19T13:42:44;97682.28;;;23.23;38.15
82746;BME280;72484;50.004;14.356;2023-09-19T13:45:33;97679.14;;;23.25;38.97
82746;BME280;72484;50.004;14.356;2023-09-19T13:48:22;97677.20;;;23.28;39.08
82746;BME280;72484;50.004;14.356;2023-09-19T13:51:11;97686.46;;;23.31;38.82
82746;BME280;72484;50.004;14.356;2023-09-19T13:54:00;97683.52;;;23.31;38.44
82746;BME280;72484;50.004;14.356;2023-09-19T13:56:48;97675.86;;;23.33;38.42
82746;BME280;72484;50.004;14.356;2023-09-19T13:59:37;97675.86;;;23.34;38.58
82746;BME280;72484;50.004;14.356;2023-09-19T14:02:25;97675.80;;;23.37;38.96
82746;BME280;72484;50.004;14.356;2023-09-19T14:05:14;97677.91;;;23.40;39.26
82746;BME280;72484;50.004;14.356;2023-09-19T14:08:04;97681.02;;;23.43;39.32
82746;BME280;72484;50.004;14.356;2023-09-19T14:10:53;97680.51;;;23.40;39.37
82746;BME280;72484;50.004;14.356;2023-09-19T14:13:41;97684.33;;;23.34;39.82
82746;BME280;72484;50.004;14.356;2023-09-19T14:16:34;97677.83;;;23.31;40.16
82746;BME280;72484;50.004;14.356;2023-09-19T14:19:22;97674.02;;;23.35;40.51
82746;BME280;72484;50.004;14.356;2023-09-19T14:22:11;97669.11;;;23.41;40.35
82746;BME280;72484;50.004;14.356;2023-09-19T14:25:00;97673.45;;;23.45;40.22
82746;BME280;72484;50.004;14.356;2023-09-19T14:27:49;97674.37;;;23.46;40.47
82746;BME280;72484;50.004;14.356;2023-09-19T14:30:37;97674.95;;;23.43;40.13
82746;BME280;72484;50.004;14.356;2023-09-19T14:33:26;97673.63;;;23.42;40.75
82746;BME280;72484;50.004;14.356;2023-09-19T14:36:14;97675.38;;;23.40;40.08
82746;BME280;72484;50.004;14.356;2023-09-19T14:39:04;97676.90;;;23.38;40.41
82746;BME280;72484;50.004;14.356;2023-09-19T14:41:53;97678.70;;;23.36;40.44
82746;BME280;72484;50.004;14.356;2023-09-19T14:44:42;97680.73;;;23.34;40.86
82746;BME280;72484;50.004;14.356;2023-09-19T14:47:31;97677.96;;;23.26;39.66
82746;BME280;72484;50.004;14.356;2023-09-19T14:50:21;97676.31;;;23.13;39.06
82746;BME280;72484;50.004;14.356;2023-09-19T14:53:11;97681.48;;;23.03;38.41
82746;BME280;72484;50.004;14.356;2023-09-19T14:56:03;97684.41;;;22.97;39.03
82746;BME280;72484;50.004;14.356;2023-09-19T14:58:52;97685.90;;;22.96;38.83